Time;durP1;ratioP1;P1;durP2;ratioP2;P2;SDS_P1;SDS_P2;PMS_P1;PMS_P2;Temp;Humidity;BMP_temperature;BMP_pressure;BME280_temperature;BME280_humidity;BME280_pressure;Samples;Min_cycle;Max_cycle;Signal;HPM_P1;HPM_P2
2021/06/06 00:02:12;;;;;;;12.32;8.45;;;16.00;93.10;;;;;;5133947;28;20172;-58
2021/06/06 00:04:43;;;;;;;11.65;8.40;;;16.00;92.50;;;;;;5133708;28;20171;-58
2021/06/06 00:07:11;;;;;;;10.95;7.47;;;16.00;92.40;;;;;;5133990;28;20160;-57
2021/06/06 00:09:37;;;;;;;10.90;7.75;;;16.00;92.30;;;;;;5115435;28;20167;-57
2021/06/06 00:12:04;;;;;;;11.40;7.65;;;16.00;93.10;;;;;;5133750;28;20211;-57
2021/06/06 00:14:32;;;;;;;14.30;8.32;;;15.90;92.70;;;;;;5136896;27;20168;-58
2021/06/06 00:16:59;;;;;;;12.45;7.70;;;15.90;92.90;;;;;;5119072;27;20187;-57
2021/06/06 00:19:26;;;;;;;14.60;8.50;;;15.80;93.50;;;;;;5102879;27;20164;-55
2021/06/06 00:21:53;;;;;;;17.02;8.65;;;15.80;93.90;;;;;;5137081;27;20190;-57
2021/06/06 00:24:22;;;;;;;18.13;8.13;;;15.70;94.00;;;;;;5102571;27;20167;-57
2021/06/06 00:26:48;;;;;;;13.27;8.73;;;15.70;94.30;;;;;;5137429;27;20175;-57
2021/06/06 00:29:14;;;;;;;13.40;8.00;;;15.70;94.10;;;;;;5137918;27;20170;-57
2021/06/06 00:31:40;;;;;;;13.20;8.55;;;15.60;94.20;;;;;;5137329;27;20659;-56
2021/06/06 00:34:06;;;;;;;14.27;8.02;;;15.60;94.30;;;;;;5137551;27;20226;-57
2021/06/06 00:36:33;;;;;;;14.98;9.02;;;15.50;94.20;;;;;;5119354;27;20160;-57
2021/06/06 00:38:59;;;;;;;13.68;8.10;;;15.50;94.40;;;;;;5118565;27;20176;-58
2021/06/06 00:41:27;;;;;;;14.55;9.15;;;15.40;94.40;;;;;;5136751;27;20188;-57
2021/06/06 00:43:53;;;;;;;12.30;7.53;;;15.40;94.50;;;;;;5136727;27;20180;-57
2021/06/06 00:46:20;;;;;;;16.85;8.25;;;15.40;94.80;;;;;;5137354;27;20207;-57
2021/06/06 00:48:46;;;;;;;17.55;7.78;;;15.40;95.00;;;;;;5118631;27;20176;-58
2021/06/06 00:51:27;;;;;;;19.15;9.10;;;15.30;95.20;;;;;;5118481;27;20208;-58
2021/06/06 00:54:01;;;;;;;13.30;8.10;;;15.30;95.30;;;;;;5120572;27;20171;-57
2021/06/06 00:56:27;;;;;;;12.70;9.27;;;15.20;95.40;;;;;;5137293;27;20152;-57
2021/06/06 00:58:55;;;;;;;19.63;8.52;;;15.20;95.60;;;;;;5101355;27;20188;-56
2021/06/06 01:01:22;;;;;;;17.92;8.00;;;15.20;95.70;;;;;;5119096;27;20160;-57
2021/06/06 01:03:48;;;;;;;11.88;8.60;;;15.10;95.90;;;;;;5137292;27;20172;-57
2021/06/06 01:06:48;;;;;;;11.95;8.02;;;15.10;95.90;;;;;;5101199;27;20180;-58
2021/06/06 01:09:15;;;;;;;12.77;8.70;;;15.00;96.00;;;;;;5081329;27;20194;-57
2021/06/06 01:12:01;;;;;;;12.00;8.55;;;15.00;96.30;;;;;;5135227;27;20566;-56
2021/06/06 01:15:16;;;;;;;17.17;10.07;;;15.00;96.80;;;;;;5121508;27;20156;-57
2021/06/06 01:18:01;;;;;;;12.95;8.40;;;15.00;96.50;;;;;;5116752;27;20191;-57
2021/06/06 01:20:34;;;;;;;14.00;8.43;;;15.00;96.50;;;;;;5117761;27;20194;-58
2021/06/06 01:23:21;;;;;;;11.75;8.63;;;15.00;96.50;;;;;;5118630;27;20160;-56
2021/06/06 01:25:48;;;;;;;15.82;8.70;;;14.90;96.50;;;;;;5135051;27;20156;-58
2021/06/06 01:28:26;;;;;;;14.50;8.50;;;15.00;96.60;;;;;;5101406;27;20167;-56
2021/06/06 01:30:54;;;;;;;17.70;8.70;;;14.90;96.60;;;;;;5101481;27;20179;-57
2021/06/06 01:33:37;;;;;;;12.73;8.50;;;14.90;96.90;;;;;;5100911;27;20216;-57
2021/06/06 01:36:07;;;;;;;12.98;8.25;;;14.90;96.90;;;;;;5118814;27;20163;-57
2021/06/06 01:38:43;;;;;;;12.80;8.52;;;14.90;97.20;;;;;;5117958;27;20171;-57
2021/06/06 01:41:11;;;;;;;12.85;9.00;;;14.90;97.30;;;;;;5119057;27;20186;-57
2021/06/06 01:43:40;;;;;;;14.55;9.60;;;14.90;97.40;;;;;;5101002;27;20187;-56
2021/06/06 01:46:09;;;;;;;12.48;8.77;;;14.90;97.50;;;;;;5117121;27;20200;-57
2021/06/06 01:48:37;;;;;;;12.50;9.32;;;14.90;97.80;;;;;;5117988;27;20643;-57
2021/06/06 01:51:11;;;;;;;15.77;10.18;;;14.80;97.90;;;;;;5117985;27;20172;-57
2021/06/06 01:53:40;;;;;;;14.25;9.10;;;14.80;97.90;;;;;;5101887;27;20195;-56
2021/06/06 01:56:06;;;;;;;12.98;9.20;;;14.70;98.10;;;;;;5118265;27;20526;-57
2021/06/06 01:58:34;;;;;;;14.68;9.77;;;14.70;98.10;;;;;;5117552;27;20176;-56
2021/06/06 02:01:12;;;;;;;16.13;9.82;;;14.70;98.30;;;;;;5117634;27;20157;-57
2021/06/06 02:03:38;;;;;;;16.50;9.07;;;14.70;98.30;;;;;;5135411;27;20195;-56
2021/06/06 02:06:05;;;;;;;12.82;8.75;;;14.60;98.40;;;;;;5117012;27;20183;-59
2021/06/06 02:08:32;;;;;;;18.92;9.18;;;14.60;98.50;;;;;;5100682;27;20164;-57
2021/06/06 02:11:00;;;;;;;15.20;9.45;;;14.50;98.70;;;;;;5117777;27;20167;-56
2021/06/06 02:13:52;;;;;;;14.15;9.35;;;14.50;98.90;;;;;;5117643;27;20164;-56
2021/06/06 02:16:22;;;;;;;13.02;9.15;;;14.40;99.20;;;;;;5103168;27;20161;-56
2021/06/06 02:18:48;;;;;;;15.23;9.45;;;14.40;99.40;;;;;;5135426;27;20149;-57
2021/06/06 02:21:15;;;;;;;16.95;9.35;;;14.40;99.50;;;;;;5135571;27;20636;-57
2021/06/06 02:23:42;;;;;;;16.27;8.95;;;14.30;99.60;;;;;;5135235;27;20624;-56
2021/06/06 02:26:13;;;;;;;16.48;8.82;;;14.30;99.50;;;;;;5135390;27;20168;-58
2021/06/06 02:28:53;;;;;;;13.23;9.40;;;14.30;99.50;;;;;;5135248;27;20152;-57
2021/06/06 02:31:27;;;;;;;12.25;9.10;;;14.30;99.70;;;;;;5116834;27;20191;-56
2021/06/06 02:34:04;;;;;;;18.60;8.98;;;14.30;99.80;;;;;;5116731;27;20219;-57
2021/06/06 02:36:31;;;;;;;15.85;9.05;;;14.20;99.90;;;;;;5117546;27;20151;-57
2021/06/06 02:39:16;;;;;;;15.30;9.23;;;14.20;99.90;;;;;;5099626;27;20180;-57
2021/06/06 02:41:42;;;;;;;17.75;9.60;;;14.20;99.90;;;;;;5117070;27;20159;-57
2021/06/06 02:44:43;;;;;;;12.95;9.02;;;14.20;99.90;;;;;;5135613;27;20163;-58
2021/06/06 02:47:11;;;;;;;12.45;9.27;;;14.20;99.90;;;;;;5088550;27;20210;-57
2021/06/06 02:49:39;;;;;;;17.15;10.15;;;14.10;99.90;;;;;;5100622;27;20159;-58
2021/06/06 02:52:14;;;;;;;15.80;9.90;;;14.10;99.90;;;;;;5116846;27;20651;-58
2021/06/06 02:54:54;;;;;;;18.00;9.02;;;14.10;99.90;;;;;;5100150;27;20606;-56
2021/06/06 02:57:21;;;;;;;16.02;9.85;;;14.00;99.90;;;;;;5084330;27;20175;-56
2021/06/06 02:59:50;;;;;;;13.80;9.70;;;14.00;99.90;;;;;;5116342;27;20642;-56
2021/06/06 03:02:18;;;;;;;16.40;9.18;;;14.00;99.90;;;;;;5099496;27;20195;-55
2021/06/06 03:04:49;;;;;;;15.48;11.00;;;14.00;99.90;;;;;;5082010;27;20708;-56
2021/06/06 03:07:23;;;;;;;15.38;10.55;;;14.10;99.90;;;;;;5099899;27;20176;-56
2021/06/06 03:09:50;;;;;;;15.10;9.20;;;14.00;99.90;;;;;;5099678;27;20155;-57
2021/06/06 03:12:16;;;;;;;17.55;9.90;;;14.00;99.90;;;;;;5116398;27;20207;-57
2021/06/06 03:14:43;;;;;;;17.20;10.32;;;14.00;99.90;;;;;;5099122;27;20164;-56
2021/06/06 03:17:19;;;;;;;14.77;10.13;;;13.90;99.90;;;;;;5098805;27;20183;-58
2021/06/06 03:19:46;;;;;;;16.80;9.07;;;13.90;99.90;;;;;;5116800;27;20164;-56
2021/06/06 03:22:16;;;;;;;14.02;11.05;;;13.90;99.90;;;;;;5115566;27;20194;-55
2021/06/06 03:24:49;;;;;;;15.15;11.13;;;13.90;99.90;;;;;;5115811;27;20623;-58
2021/06/06 03:27:15;;;;;;;18.83;9.00;;;13.90;99.90;;;;;;5098942;27;20179;-57
2021/06/06 03:29:59;;;;;;;18.00;11.50;;;13.90;99.90;;;;;;5134041;27;20179;-56
2021/06/06 03:32:27;;;;;;;17.10;11.60;;;13.80;99.90;;;;;;5115931;27;20215;-56
2021/06/06 03:34:53;;;;;;;18.30;11.73;;;13.90;99.90;;;;;;5098298;27;20216;-57
2021/06/06 03:37:20;;;;;;;17.83;9.85;;;13.90;99.90;;;;;;5134387;27;20179;-56
2021/06/06 03:39:46;;;;;;;14.77;9.18;;;13.90;99.90;;;;;;5133112;27;20175;-58
2021/06/06 03:42:12;;;;;;;18.02;10.38;;;13.90;99.90;;;;;;5134113;27;20176;-57
2021/06/06 03:44:38;;;;;;;18.35;10.13;;;13.90;99.90;;;;;;5132711;27;20187;-57
2021/06/06 03:47:04;;;;;;;18.45;10.48;;;13.90;99.90;;;;;;5133721;27;20664;-57
2021/06/06 03:49:30;;;;;;;20.85;10.38;;;13.90;99.90;;;;;;5114510;27;20195;-57
2021/06/06 03:51:56;;;;;;;14.80;9.93;;;13.90;99.90;;;;;;5132927;27;20215;-57
2021/06/06 03:54:22;;;;;;;15.68;10.18;;;13.90;99.90;;;;;;5133844;27;20179;-57
2021/06/06 03:56:49;;;;;;;17.95;10.30;;;13.90;99.90;;;;;;5133705;27;20168;-57
2021/06/06 03:59:16;;;;;;;13.30;10.30;;;13.90;99.90;;;;;;5133851;27;20535;-57
2021/06/06 04:01:42;;;;;;;14.07;10.50;;;14.00;99.90;;;;;;5133495;27;20171;-57
2021/06/06 04:04:08;;;;;;;15.90;10.57;;;14.00;99.90;;;;;;5115770;28;20187;-57
2021/06/06 04:06:34;;;;;;;19.13;10.43;;;14.00;99.90;;;;;;5132736;28;20184;-56
2021/06/06 04:09:02;;;;;;;16.50;11.00;;;14.10;99.90;;;;;;5132975;28;20539;-57
2021/06/06 04:11:28;;;;;;;14.15;10.45;;;14.20;99.90;;;;;;5133839;28;20164;-55
2021/06/06 04:13:54;;;;;;;14.18;10.45;;;14.30;99.90;;;;;;5133551;28;20632;-57
2021/06/06 04:16:20;;;;;;;15.90;10.73;;;14.40;99.90;;;;;;5133912;28;20175;-56
2021/06/06 04:18:47;;;;;;;18.60;11.02;;;14.50;99.90;;;;;;5114691;28;20187;-56
2021/06/06 04:21:18;;;;;;;15.02;10.20;;;14.50;99.90;;;;;;5133709;28;20521;-57
2021/06/06 04:23:44;;;;;;;13.55;9.95;;;14.60;99.90;;;;;;5132714;28;20349;-57
2021/06/06 04:26:11;;;;;;;14.18;10.57;;;14.60;99.90;;;;;;5133896;28;20624;-58
2021/06/06 04:28:37;;;;;;;14.98;10.18;;;14.70;99.90;;;;;;5133637;28;20163;-57
2021/06/06 04:31:04;;;;;;;15.27;11.02;;;14.80;99.90;;;;;;5114985;28;20168;-56
2021/06/06 04:33:30;;;;;;;12.00;9.77;;;14.80;99.90;;;;;;5133391;28;20227;-57
2021/06/06 04:35:56;;;;;;;15.13;11.07;;;14.90;99.90;;;;;;5133295;28;20529;-56
2021/06/06 04:38:24;;;;;;;16.20;10.55;;;15.00;99.90;;;;;;5133520;28;20173;-56
2021/06/06 04:40:50;;;;;;;17.48;11.13;;;15.10;99.90;;;;;;5132443;28;20572;-56
2021/06/06 04:43:17;;;;;;;13.18;10.38;;;15.20;99.90;;;;;;5133455;28;20172;-56
2021/06/06 04:45:43;;;;;;;16.00;11.05;;;15.30;99.90;;;;;;5133162;28;20208;-56
2021/06/06 04:48:26;;;;;;;15.25;10.00;;;15.40;99.90;;;;;;5132959;28;20180;-56
2021/06/06 04:50:53;;;;;;;15.45;10.48;;;15.50;99.90;;;;;;5132731;28;20191;-55
2021/06/06 04:53:19;;;;;;;17.77;10.15;;;15.60;99.90;;;;;;5133216;28;20206;-56
2021/06/06 04:55:46;;;;;;;16.67;10.55;;;15.70;99.90;;;;;;5133061;28;20555;-57
2021/06/06 04:58:14;;;;;;;16.05;10.63;;;15.80;99.90;;;;;;5115279;28;20164;-57
2021/06/06 05:00:41;;;;;;;14.65;10.30;;;16.00;99.90;;;;;;5136594;27;20160;-57
2021/06/06 05:03:08;;;;;;;15.57;10.52;;;16.10;99.80;;;;;;5137133;27;20180;-56
2021/06/06 05:05:34;;;;;;;15.40;10.43;;;16.20;99.60;;;;;;5137173;27;20168;-57
2021/06/06 05:08:01;;;;;;;12.15;9.70;;;16.30;99.30;;;;;;5118549;27;20183;-57
2021/06/06 05:10:28;;;;;;;14.50;9.57;;;16.40;99.20;;;;;;5137118;27;20164;-57
2021/06/06 05:12:54;;;;;;;16.75;9.85;;;16.60;98.90;;;;;;5135825;27;20216;-57
2021/06/06 05:15:20;;;;;;;14.45;9.98;;;16.70;98.70;;;;;;5136867;27;20530;-56
2021/06/06 05:17:46;;;;;;;17.10;10.25;;;16.80;98.50;;;;;;5136626;27;20175;-57
2021/06/06 05:20:13;;;;;;;14.30;9.57;;;16.90;98.10;;;;;;5136014;27;20655;-56
2021/06/06 05:22:39;;;;;;;18.05;9.68;;;16.90;97.90;;;;;;5136852;27;20174;-55
2021/06/06 05:25:06;;;;;;;17.20;9.15;;;17.10;97.80;;;;;;5136491;27;20190;-56
2021/06/06 05:27:32;;;;;;;14.57;8.48;;;17.20;96.80;;;;;;5136582;27;20639;-56
2021/06/06 05:29:59;;;;;;;12.55;8.57;;;17.20;96.00;;;;;;5101073;27;20168;-55
2021/06/06 05:32:25;;;;;;;15.13;8.75;;;17.30;95.90;;;;;;5135201;27;20226;-56
2021/06/06 05:34:51;;;;;;;14.38;8.88;;;17.50;95.80;;;;;;5136180;27;20227;-55
2021/06/06 05:37:17;;;;;;;13.45;8.50;;;17.50;94.80;;;;;;5101240;27;20183;-55
2021/06/06 05:39:43;;;;;;;14.82;8.20;;;17.60;96.00;;;;;;5136450;27;20168;-56
2021/06/06 05:42:11;;;;;;;10.95;7.90;;;17.70;95.60;;;;;;5136124;27;20160;-57
2021/06/06 05:44:37;;;;;;;13.13;8.40;;;17.80;96.00;;;;;;5136551;27;20164;-57
2021/06/06 05:47:03;;;;;;;11.13;8.32;;;18.00;95.40;;;;;;5135579;27;20214;-57
2021/06/06 05:49:30;;;;;;;10.05;7.63;;;18.00;95.40;;;;;;5117965;27;20160;-55
2021/06/06 05:51:56;;;;;;;10.77;8.05;;;18.10;95.60;;;;;;5135923;27;20171;-56
2021/06/06 05:54:22;;;;;;;11.95;8.30;;;18.30;95.30;;;;;;5136144;27;20176;-55
2021/06/06 05:56:48;;;;;;;13.27;7.47;;;18.30;94.90;;;;;;5135856;27;20172;-55
2021/06/06 05:59:14;;;;;;;13.00;7.70;;;18.40;94.10;;;;;;5136351;27;20175;-55
2021/06/06 06:01:40;;;;;;;10.48;7.10;;;18.60;93.40;;;;;;5135897;27;20168;-55
2021/06/06 06:04:06;;;;;;;13.25;7.45;;;18.70;93.30;;;;;;5117393;27;20628;-57
2021/06/06 06:06:33;;;;;;;11.27;7.32;;;18.80;92.30;;;;;;5135992;27;20175;-56
2021/06/06 06:08:59;;;;;;;9.80;6.45;;;19.00;92.20;;;;;;5135628;27;20172;-55
2021/06/06 06:11:25;;;;;;;8.45;6.10;;;19.10;92.00;;;;;;5116119;27;20179;-55
2021/06/06 06:13:51;;;;;;;8.80;7.15;;;19.10;91.00;;;;;;5116361;27;20212;-55
2021/06/06 06:16:20;;;;;;;10.13;6.40;;;19.20;91.20;;;;;;5134670;27;20179;-56
2021/06/06 06:18:49;;;;;;;10.00;6.72;;;19.40;90.80;;;;;;5117638;27;20174;-56
2021/06/06 06:21:15;;;;;;;11.18;6.55;;;19.50;88.30;;;;;;5135124;27;20187;-56
2021/06/06 06:23:42;;;;;;;18.02;6.32;;;19.70;86.90;;;;;;5135470;27;20533;-57
2021/06/06 06:26:08;;;;;;;9.57;5.93;;;19.90;86.00;;;;;;5134846;27;20634;-57
2021/06/06 06:28:35;;;;;;;8.88;4.47;;;19.90;87.70;;;;;;5135476;27;20168;-55
2021/06/06 06:31:01;;;;;;;7.13;4.10;;;19.80;83.80;;;;;;5135165;27;20164;-58
2021/06/06 06:33:27;;;;;;;6.65;3.80;;;19.80;78.80;;;;;;5134032;27;20223;-57
2021/06/06 06:35:53;;;;;;;4.70;3.45;;;19.90;76.50;;;;;;5135149;27;20172;-57
2021/06/06 06:38:20;;;;;;;7.30;4.13;;;20.10;77.10;;;;;;5134727;27;20184;-57
2021/06/06 06:40:46;;;;;;;10.23;3.42;;;20.20;77.40;;;;;;5135221;27;20168;-58
2021/06/06 06:43:12;;;;;;;8.13;3.30;;;20.20;69.90;;;;;;5116046;27;20179;-57
2021/06/06 06:45:40;;;;;;;6.95;4.43;;;20.30;72.00;;;;;;5116822;27;20199;-57
2021/06/06 06:48:11;;;;;;;9.60;4.13;;;20.30;73.70;;;;;;5116445;27;20187;-57
2021/06/06 06:50:38;;;;;;;8.82;4.63;;;20.30;74.90;;;;;;5134574;27;20191;-57
2021/06/06 06:53:04;;;;;;;6.80;4.40;;;20.20;76.90;;;;;;5116445;27;20203;-58
2021/06/06 06:55:30;;;;;;;6.13;4.38;;;20.40;77.10;;;;;;5135108;27;20175;-56
2021/06/06 06:57:57;;;;;;;6.82;4.70;;;20.50;78.10;;;;;;5134272;27;20184;-57
2021/06/06 07:00:26;;;;;;;4.72;4.15;;;20.60;75.20;;;;;;5135009;27;20164;-56
2021/06/06 07:02:52;;;;;;;7.43;4.07;;;20.60;75.20;;;;;;5116431;27;20164;-58
2021/06/06 07:05:18;;;;;;;7.75;4.07;;;20.70;74.40;;;;;;5134645;27;20624;-56
2021/06/06 07:07:45;;;;;;;8.57;3.80;;;20.70;71.20;;;;;;5134847;27;20187;-54
2021/06/06 07:10:12;;;;;;;5.55;3.75;;;20.70;71.30;;;;;;5134362;27;20176;-55
2021/06/06 07:12:39;;;;;;;7.45;3.17;;;20.90;72.40;;;;;;5134460;27;20191;-54
2021/06/06 07:15:07;;;;;;;4.35;3.60;;;21.00;72.20;;;;;;5134331;27;20524;-56
2021/06/06 07:17:33;;;;;;;4.88;3.00;;;21.10;69.40;;;;;;5134492;27;20160;-57
2021/06/06 07:19:59;;;;;;;8.82;3.45;;;21.20;70.40;;;;;;5133592;27;20201;-55
2021/06/06 07:22:25;;;;;;;6.22;3.30;;;21.20;66.90;;;;;;5134339;27;20552;-55
2021/06/06 07:24:51;;;;;;;11.15;3.58;;;21.40;70.90;;;;;;5115202;27;20183;-56
2021/06/06 07:27:18;;;;;;;8.73;3.50;;;21.50;67.30;;;;;;5134507;27;20175;-55
2021/06/06 07:29:45;;;;;;;4.15;3.25;;;21.50;65.90;;;;;;5134330;27;20172;-56
2021/06/06 07:32:11;;;;;;;8.00;3.15;;;21.60;65.30;;;;;;5115771;27;20189;-57
2021/06/06 07:34:37;;;;;;;13.00;3.38;;;21.60;64.20;;;;;;5133401;27;20230;-56
2021/06/06 07:37:05;;;;;;;3.85;3.15;;;21.60;65.30;;;;;;5134079;27;20169;-56
2021/06/06 07:39:31;;;;;;;6.53;3.05;;;21.60;65.50;;;;;;5134354;27;20168;-57
2021/06/06 07:41:58;;;;;;;5.00;3.30;;;21.50;62.70;;;;;;5134192;27;20175;-57
2021/06/06 07:44:25;;;;;;;9.05;3.25;;;21.60;63.30;;;;;;5134155;27;20171;-58
2021/06/06 07:46:52;;;;;;;6.38;3.60;;;21.60;63.10;;;;;;5133914;27;20210;-56
2021/06/06 07:49:18;;;;;;;5.38;3.50;;;21.70;62.60;;;;;;5133833;27;20164;-55
2021/06/06 07:51:44;;;;;;;11.25;3.60;;;21.70;63.90;;;;;;5134086;27;20171;-56
2021/06/06 07:54:10;;;;;;;5.95;3.15;;;21.70;61.40;;;;;;5132720;27;20227;-57
2021/06/06 07:56:36;;;;;;;5.90;3.00;;;21.80;63.60;;;;;;5134008;27;20643;-58
2021/06/06 07:59:04;;;;;;;6.68;3.60;;;21.90;62.20;;;;;;5133675;27;20176;-56
2021/06/06 08:01:30;;;;;;;10.13;3.88;;;22.00;61.70;;;;;;5133794;27;20164;-55
2021/06/06 08:03:56;;;;;;;4.22;2.90;;;22.10;61.60;;;;;;5132993;28;20183;-57
2021/06/06 08:06:22;;;;;;;7.38;3.17;;;22.20;62.40;;;;;;5133063;28;20179;-56
2021/06/06 08:08:48;;;;;;;5.75;3.17;;;22.30;61.40;;;;;;5133981;28;20172;-57
2021/06/06 08:11:15;;;;;;;5.45;3.08;;;22.60;62.00;;;;;;5133509;28;20179;-54
2021/06/06 08:13:41;;;;;;;9.88;3.10;;;22.70;60.60;;;;;;5133131;28;20227;-57
2021/06/06 08:16:07;;;;;;;8.27;2.70;;;22.90;61.40;;;;;;5132739;28;20194;-56
2021/06/06 08:18:36;;;;;;;7.30;3.20;;;22.90;59.70;;;;;;5133939;28;20172;-55
2021/06/06 08:21:11;;;;;;;5.82;2.60;;;22.70;58.50;;;;;;5133573;28;20171;-55
2021/06/06 08:23:37;;;;;;;5.32;3.00;;;22.80;60.20;;;;;;5115494;28;20623;-57
2021/06/06 08:26:04;;;;;;;7.97;2.90;;;22.90;58.20;;;;;;5133474;28;20172;-55
2021/06/06 08:28:30;;;;;;;15.27;3.53;;;22.90;57.80;;;;;;5133389;28;20182;-57
2021/06/06 08:30:59;;;;;;;5.60;3.00;;;23.20;61.80;;;;;;5133132;28;20190;-56
2021/06/06 08:33:27;;;;;;;8.15;3.03;;;23.80;58.80;;;;;;5131976;27;20226;-55
2021/06/06 08:35:55;;;;;;;5.57;2.72;;;24.50;55.10;;;;;;5136601;27;20171;-56
2021/06/06 08:38:21;;;;;;;8.88;2.88;;;25.30;55.70;;;;;;5118667;27;20176;-56
2021/06/06 08:41:13;;;;;;;4.85;2.85;;;25.90;53.20;;;;;;5137604;27;20168;-61
2021/06/06 08:43:41;;;;;;;5.18;2.30;;;26.00;51.00;;;;;;5137096;27;20183;-58
2021/06/06 08:46:07;;;;;;;6.15;2.60;;;26.40;51.40;;;;;;5137114;27;20211;-58
2021/06/06 08:48:34;;;;;;;6.85;2.63;;;26.60;49.80;;;;;;5136929;27;20172;-57
2021/06/06 08:51:06;;;;;;;11.05;2.60;;;27.00;48.00;;;;;;5118088;27;20211;-56
2021/06/06 08:54:03;;;;;;;4.68;2.63;;;27.00;49.20;;;;;;5137233;27;20535;-58
2021/06/06 08:56:34;;;;;;;4.18;2.40;;;27.20;48.20;;;;;;5110007;27;20183;-56
2021/06/06 08:59:11;;;;;;;5.30;2.75;;;27.00;47.80;;;;;;5102526;27;20156;-57
2021/06/06 09:01:40;;;;;;;4.32;2.40;;;27.30;48.90;;;;;;5119176;27;20167;-56
2021/06/06 09:04:12;;;;;;;5.03;2.70;;;27.60;47.80;;;;;;5117921;27;20648;-58
2021/06/06 09:06:55;;;;;;;6.50;2.40;;;28.30;47.40;;;;;;5118142;27;20188;-55
2021/06/06 09:09:30;;;;;;;7.68;2.20;;;28.10;42.60;;;;;;5100923;27;20535;-56
2021/06/06 09:11:58;;;;;;;3.42;2.30;;;27.80;44.40;;;;;;5137064;27;20156;-57
2021/06/06 09:14:24;;;;;;;3.47;2.50;;;28.00;44.50;;;;;;5136803;27;20536;-57
2021/06/06 09:17:07;;;;;;;5.28;2.20;;;28.40;42.90;;;;;;5118196;27;20187;-58
2021/06/06 09:19:46;;;;;;;3.72;2.03;;;28.80;44.10;;;;;;5137203;27;20152;-57
2021/06/06 09:22:13;;;;;;;7.05;2.65;;;29.20;44.00;;;;;;5136954;27;20163;-57
2021/06/06 09:24:47;;;;;;;6.10;2.20;;;29.50;43.10;;;;;;5118640;27;20168;-57
2021/06/06 09:27:18;;;;;;;7.35;2.30;;;29.60;41.70;;;;;;5135743;27;20195;-57
2021/06/06 09:29:44;;;;;;;4.25;2.10;;;29.60;42.20;;;;;;5117344;27;20179;-57
2021/06/06 09:32:13;;;;;;;10.02;2.10;;;29.70;42.70;;;;;;5136350;27;20172;-58
2021/06/06 09:34:55;;;;;;;4.82;2.53;;;29.70;39.30;;;;;;5136414;27;20212;-55
2021/06/06 09:37:24;;;;;;;4.68;2.10;;;29.80;41.40;;;;;;5118067;27;20187;-55
2021/06/06 09:40:32;;;;;;;7.80;2.58;;;29.90;42.30;;;;;;5101625;27;20612;-56
2021/06/06 09:42:59;;;;;;;6.63;2.60;;;28.80;42.40;;;;;;5096961;27;20534;-56
2021/06/06 09:45:25;;;;;;;5.28;2.47;;;28.40;42.20;;;;;;5135145;27;20196;-57
2021/06/06 09:48:16;;;;;;;9.80;2.50;;;28.20;43.50;;;;;;5136107;27;20167;-56
2021/06/06 09:50:44;;;;;;;5.78;2.40;;;28.10;43.60;;;;;;5136450;27;20597;-56
2021/06/06 09:53:32;;;;;;;8.15;2.75;;;27.60;45.40;;;;;;5135841;27;20199;-55
2021/06/06 09:56:08;;;;;;;7.07;2.70;;;27.10;47.10;;;;;;5121418;27;20211;-57
2021/06/06 09:58:37;;;;;;;4.82;2.80;;;27.50;46.30;;;;;;5135566;27;20190;-57
2021/06/06 10:01:21;;;;;;;8.05;2.60;;;28.10;46.40;;;;;;5117811;27;20179;-57
2021/06/06 10:03:51;;;;;;;9.60;2.78;;;27.40;43.40;;;;;;5118110;27;20245;-57
2021/06/06 10:06:26;;;;;;;5.32;2.83;;;27.40;43.00;;;;;;5135123;27;20206;-57
2021/06/06 10:09:25;;;;;;;4.38;2.38;;;27.60;44.40;;;;;;5118127;27;20179;-57
2021/06/06 10:11:55;;;;;;;6.07;2.60;;;28.00;43.40;;;;;;5132153;27;20190;-55
2021/06/06 10:14:31;;;;;;;2.65;2.40;;;28.40;42.90;;;;;;5100714;27;20206;-57
2021/06/06 10:17:00;;;;;;;4.30;2.40;;;28.80;42.50;;;;;;5101658;27;20623;-56
2021/06/06 10:19:29;;;;;;;3.03;2.08;;;28.60;40.90;;;;;;5099989;27;20180;-55
2021/06/06 10:21:57;;;;;;;8.10;2.67;;;28.10;38.60;;;;;;5116496;27;20187;-57
2021/06/06 10:24:39;;;;;;;6.28;2.55;;;28.60;42.50;;;;;;5099568;27;20191;-56
2021/06/06 10:27:13;;;;;;;3.72;2.30;;;28.60;42.10;;;;;;5100090;27;20180;-56
2021/06/06 10:30:02;;;;;;;6.85;2.50;;;28.40;39.30;;;;;;5134935;27;20528;-57
2021/06/06 10:32:34;;;;;;;5.13;2.33;;;28.50;37.70;;;;;;5120204;27;20172;-56
2021/06/06 10:35:20;;;;;;;3.00;2.08;;;28.70;39.60;;;;;;5135070;27;20706;-56
2021/06/06 10:37:49;;;;;;;2.63;2.00;;;29.20;36.40;;;;;;5135417;27;20168;-55
2021/06/06 10:40:31;;;;;;;3.33;2.13;;;29.20;35.50;;;;;;5116792;27;20168;-57
2021/06/06 10:43:08;;;;;;;4.35;2.13;;;29.40;34.90;;;;;;5116361;27;20543;-58
2021/06/06 10:45:51;;;;;;;4.93;2.10;;;28.80;34.40;;;;;;5118124;27;20187;-55
2021/06/06 10:48:40;;;;;;;5.18;2.20;;;28.90;36.60;;;;;;5116838;27;20155;-58
2021/06/06 10:51:36;;;;;;;5.03;2.45;;;28.50;36.30;;;;;;5100191;27;20617;-57
2021/06/06 10:54:21;;;;;;;6.03;2.63;;;28.10;38.20;;;;;;5114849;27;20212;-57
2021/06/06 10:56:47;;;;;;;2.88;1.95;;;27.90;40.40;;;;;;5101983;27;20161;-57
2021/06/06 10:59:13;;;;;;;7.07;2.13;;;28.00;40.00;;;;;;5134794;27;20179;-55
2021/06/06 11:01:42;;;;;;;4.43;2.55;;;28.20;40.90;;;;;;5099637;27;20171;-58
2021/06/06 11:04:11;;;;;;;5.85;2.50;;;28.60;41.50;;;;;;5134577;27;20175;-57
2021/06/06 11:06:37;;;;;;;3.65;2.35;;;29.10;39.90;;;;;;5135076;27;20329;-59
2021/06/06 11:09:05;;;;;;;3.78;2.17;;;29.00;38.90;;;;;;5116539;27;20172;-57
2021/06/06 11:11:37;;;;;;;4.70;2.15;;;28.60;37.90;;;;;;5116797;27;20171;-58
2021/06/06 11:14:11;;;;;;;4.60;2.22;;;28.50;37.40;;;;;;5116370;27;20679;-57
2021/06/06 11:16:45;;;;;;;7.55;2.05;;;27.80;34.20;;;;;;5133774;27;20279;-58
2021/06/06 11:19:20;;;;;;;5.90;2.47;;;27.10;37.80;;;;;;5133808;27;20180;-56
2021/06/06 11:22:28;;;;;;;8.30;2.13;;;27.00;39.10;;;;;;5134442;27;20192;-57
2021/06/06 11:24:54;;;;;;;5.72;2.05;;;27.60;37.50;;;;;;5088299;27;20180;-58
2021/06/06 11:27:29;;;;;;;3.15;2.00;;;27.60;37.20;;;;;;5115937;27;20163;-58
2021/06/06 11:30:21;;;;;;;4.32;2.00;;;28.00;36.80;;;;;;5100581;27;20163;-58
2021/06/06 11:32:59;;;;;;;7.28;1.95;;;27.70;36.80;;;;;;5100070;27;20636;-55
2021/06/06 11:35:41;;;;;;;5.88;2.05;;;27.60;39.40;;;;;;5133521;27;20199;-57
2021/06/06 11:38:29;;;;;;;2.88;1.70;;;27.90;38.60;;;;;;5115760;27;20159;-57
2021/06/06 11:41:23;;;;;;;3.40;2.00;;;27.50;36.60;;;;;;5134124;27;20171;-57
2021/06/06 11:43:57;;;;;;;6.78;2.03;;;27.30;36.70;;;;;;5134410;27;20164;-57
2021/06/06 11:46:23;;;;;;;5.03;2.25;;;27.50;37.80;;;;;;5098688;27;20199;-56
2021/06/06 11:49:15;;;;;;;4.40;2.20;;;27.30;39.00;;;;;;5133824;27;20184;-57
2021/06/06 11:51:43;;;;;;;3.55;2.22;;;27.10;39.40;;;;;;5118924;27;20152;-57
2021/06/06 11:54:21;;;;;;;6.65;2.00;;;27.20;36.00;;;;;;5098626;27;20192;-57
2021/06/06 11:56:47;;;;;;;3.92;2.20;;;26.30;34.60;;;;;;5133939;27;20160;-57
2021/06/06 11:59:19;;;;;;;4.25;2.00;;;25.90;36.00;;;;;;5133559;27;20172;-57
2021/06/06 12:01:49;;;;;;;2.72;2.17;;;25.90;38.30;;;;;;5099179;27;20148;-56
2021/06/06 12:04:16;;;;;;;5.03;1.90;;;25.90;39.50;;;;;;5115468;28;20636;-57
2021/06/06 12:06:44;;;;;;;2.50;2.03;;;25.90;38.90;;;;;;5134013;28;20160;-57
2021/06/06 12:09:25;;;;;;;6.72;2.20;;;26.10;38.30;;;;;;5114704;28;20632;-57
2021/06/06 12:12:04;;;;;;;4.68;2.05;;;26.40;40.60;;;;;;5116372;28;20164;-59
2021/06/06 12:14:31;;;;;;;4.68;2.38;;;26.30;36.70;;;;;;5133516;28;20640;-60
2021/06/06 12:16:59;;;;;;;4.72;2.10;;;26.40;38.30;;;;;;5134084;28;20175;-57
2021/06/06 12:19:35;;;;;;;10.25;2.75;;;26.50;39.00;;;;;;5133507;28;20160;-58
2021/06/06 12:22:14;;;;;;;3.95;2.40;;;26.20;36.60;;;;;;5132926;28;20179;-56
2021/06/06 12:24:40;;;;;;;10.90;2.10;;;25.60;37.90;;;;;;5133778;28;20160;-57
2021/06/06 12:27:39;;;;;;;3.20;2.35;;;25.40;36.00;;;;;;5115602;28;20176;-60
2021/06/06 12:30:18;;;;;;;3.97;2.00;;;25.20;38.50;;;;;;5117040;27;20195;-60
2021/06/06 12:33:18;;;;;;;3.63;2.17;;;25.10;36.30;;;;;;5116477;28;20172;-58
2021/06/06 12:35:48;;;;;;;4.65;1.80;;;25.20;37.50;;;;;;5054971;28;20697;-58
2021/06/06 12:38:16;;;;;;;6.22;2.13;;;25.20;39.10;;;;;;5115139;28;20160;-57
2021/06/06 12:40:42;;;;;;;4.07;2.40;;;25.10;38.90;;;;;;5114648;28;20184;-58
2021/06/06 12:43:08;;;;;;;3.58;2.30;;;24.90;38.20;;;;;;5098489;28;20168;-57
2021/06/06 12:45:37;;;;;;;5.38;2.47;;;24.80;38.60;;;;;;5114874;28;20195;-58
2021/06/06 12:48:07;;;;;;;3.70;2.30;;;25.00;39.40;;;;;;5114782;28;20188;-57
2021/06/06 12:50:33;;;;;;;4.03;2.10;;;25.50;39.60;;;;;;5132807;28;20183;-60
2021/06/06 12:53:02;;;;;;;5.53;2.53;;;25.50;36.40;;;;;;5133525;28;20176;-58
2021/06/06 12:55:35;;;;;;;3.47;2.40;;;25.50;37.80;;;;;;5114826;28;20196;-58
2021/06/06 12:58:04;;;;;;;2.72;1.90;;;25.40;38.60;;;;;;5133329;28;20589;-57
2021/06/06 13:00:33;;;;;;;5.20;2.03;;;25.50;38.00;;;;;;5133333;28;20183;-57